sensor_id;sensor_type;location;lat;lon;timestamp;pressure;altitude;pressure_sealevel;temperature;humidity
21011;BME280;10663;42.714;23.274;2024-03-07T00:01:03;94568.19;;;8.30;100.00
21011;BME280;10663;42.714;23.274;2024-03-07T00:02:34;94569.81;;;8.31;100.00
21011;BME280;10663;42.714;23.274;2024-03-07T00:04:05;94569.00;;;8.31;100.00
21011;BME280;10663;42.714;23.274;2024-03-07T00:05:36;94564.25;;;8.27;100.00
21011;BME280;10663;42.714;23.274;2024-03-07T00:07:06;94571.09;;;8.28;100.00
21011;BME280;10663;42.714;23.274;2024-03-07T00:08:37;94561.09;;;8.31;100.00
21011;BME280;10663;42.714;23.274;2024-03-07T00:10:09;94563.72;;;8.31;100.00
21011;BME280;10663;42.714;23.274;2024-03-07T00:11:40;94566.09;;;8.27;100.00
21011;BME280;10663;42.714;23.274;2024-03-07T00:13:11;94572.91;;;8.23;100.00
21011;BME280;10663;42.714;23.274;2024-03-07T00:14:43;94562.41;;;8.28;100.00
21011;BME280;10663;42.714;23.274;2024-03-07T00:16:13;94559.78;;;8.28;100.00
21011;BME280;10663;42.714;23.274;2024-03-07T00:17:44;94561.84;;;8.26;100.00
21011;BME280;10663;42.714;23.274;2024-03-07T00:19:15;94560.75;;;8.22;100.00
21011;BME280;10663;42.714;23.274;2024-03-07T00:20:45;94558.44;;;8.25;100.00
21011;BME280;10663;42.714;23.274;2024-03-07T00:22:16;94555.25;;;8.23;100.00
21011;BME280;10663;42.714;23.274;2024-03-07T00:23:46;94557.88;;;8.23;100.00
21011;BME280;10663;42.714;23.274;2024-03-07T00:25:17;94560.19;;;8.15;100.00
21011;BME280;10663;42.714;23.274;2024-03-07T00:26:49;94558.28;;;8.10;100.00
21011;BME280;10663;42.714;23.274;2024-03-07T00:28:21;94552.78;;;8.12;100.00
21011;BME280;10663;42.714;23.274;2024-03-07T00:29:52;94554.38;;;8.13;100.00
21011;BME280;10663;42.714;23.274;2024-03-07T00:31:26;94549.34;;;8.11;100.00
21011;BME280;10663;42.714;23.274;2024-03-07T00:32:57;94553.28;;;8.09;100.00
21011;BME280;10663;42.714;23.274;2024-03-07T00:34:28;94556.72;;;8.09;100.00
21011;BME280;10663;42.714;23.274;2024-03-07T00:35:58;94556.19;;;8.07;100.00
21011;BME280;10663;42.714;23.274;2024-03-07T00:37:30;94550.34;;;8.00;100.00
21011;BME280;10663;42.714;23.274;2024-03-07T00:39:01;94552.50;;;8.08;100.00
21011;BME280;10663;42.714;23.274;2024-03-07T00:40:32;94556.44;;;8.11;100.00
21011;BME280;10663;42.714;23.274;2024-03-07T00:42:02;94553.81;;;8.11;100.00
21011;BME280;10663;42.714;23.274;2024-03-07T00:43:33;94550.38;;;8.10;100.00
21011;BME280;10663;42.714;23.274;2024-03-07T00:45:04;94545.09;;;8.05;100.00
21011;BME280;10663;42.714;23.274;2024-03-07T00:46:37;94547.22;;;8.08;100.00
21011;BME280;10663;42.714;23.274;2024-03-07T00:48:08;94547.72;;;8.05;100.00
21011;BME280;10663;42.714;23.274;2024-03-07T00:49:41;94546.69;;;8.06;100.00
21011;BME280;10663;42.714;23.274;2024-03-07T00:51:12;94543.47;;;7.99;100.00
21011;BME280;10663;42.714;23.274;2024-03-07T00:52:43;94543.72;;;7.98;100.00
21011;BME280;10663;42.714;23.274;2024-03-07T00:54:13;94542.13;;;7.97;100.00
21011;BME280;10663;42.714;23.274;2024-03-07T00:55:44;94536.28;;;7.95;100.00
21011;BME280;10663;42.714;23.274;2024-03-07T00:57:15;94539.69;;;7.90;100.00
21011;BME280;10663;42.714;23.274;2024-03-07T00:58:46;94541.22;;;7.86;100.00
21011;BME280;10663;42.714;23.274;2024-03-07T01:00:17;94538.84;;;7.84;100.00
21011;BME280;10663;42.714;23.274;2024-03-07T01:01:51;94535.72;;;7.87;100.00
21011;BME280;10663;42.714;23.274;2024-03-07T01:03:22;94534.44;;;7.90;100.00
21011;BME280;10663;42.714;23.274;2024-03-07T01:04:54;94536.47;;;7.83;100.00
21011;BME280;10663;42.714;23.274;2024-03-07T01:06:25;94530.44;;;7.87;100.00
21011;BME280;10663;42.714;23.274;2024-03-07T01:07:55;94532.59;;;7.91;100.00
21011;BME280;10663;42.714;23.274;2024-03-07T01:09:26;94523.34;;;7.88;100.00
21011;BME280;10663;42.714;23.274;2024-03-07T01:10:58;94529.69;;;7.92;100.00
21011;BME280;10663;42.714;23.274;2024-03-07T01:12:29;94527.03;;;7.92;100.00
21011;BME280;10663;42.714;23.274;2024-03-07T01:14:01;94520.47;;;7.95;100.00
21011;BME280;10663;42.714;23.274;2024-03-07T01:15:32;94525.81;;;8.00;100.00
21011;BME280;10663;42.714;23.274;2024-03-07T01:17:03;94523.16;;;8.00;100.00
21011;BME280;10663;42.714;23.274;2024-03-07T01:18:35;94525.72;;;7.89;100.00
21011;BME280;10663;42.714;23.274;2024-03-07T01:20:06;94522.31;;;7.94;100.00
21011;BME280;10663;42.714;23.274;2024-03-07T01:21:37;94531.03;;;7.95;100.00
21011;BME280;10663;42.714;23.274;2024-03-07T01:23:08;94521.28;;;7.95;100.00
21011;BME280;10663;42.714;23.274;2024-03-07T01:24:39;94527.34;;;7.96;100.00
21011;BME280;10663;42.714;23.274;2024-03-07T01:26:10;94525.72;;;7.89;100.00
21011;BME280;10663;42.714;23.274;2024-03-07T01:27:41;94521.75;;;7.92;100.00
21011;BME280;10663;42.714;23.274;2024-03-07T01:29:11;94510.72;;;7.95;100.00
21011;BME280;10663;42.714;23.274;2024-03-07T01:30:44;94514.72;;;7.98;100.00
21011;BME280;10663;42.714;23.274;2024-03-07T01:32:16;94517.28;;;7.93;100.00
21011;BME280;10663;42.714;23.274;2024-03-07T01:33:47;94518.38;;;7.97;100.00
21011;BME280;10663;42.714;23.274;2024-03-07T01:35:17;94511.78;;;7.94;100.00
21011;BME280;10663;42.714;23.274;2024-03-07T01:36:48;94507.28;;;7.89;100.00
21011;BME280;10663;42.714;23.274;2024-03-07T01:38:19;94520.69;;;7.88;100.00
21011;BME280;10663;42.714;23.274;2024-03-07T01:39:49;94513.34;;;7.90;100.00
21011;BME280;10663;42.714;23.274;2024-03-07T01:41:20;94522.03;;;7.91;100.00
21011;BME280;10663;42.714;23.274;2024-03-07T01:42:51;94516.00;;;7.95;100.00
21011;BME280;10663;42.714;23.274;2024-03-07T01:44:21;94523.88;;;7.90;100.00
21011;BME280;10663;42.714;23.274;2024-03-07T01:45:54;94526.00;;;7.93;100.00
21011;BME280;10663;42.714;23.274;2024-03-07T01:47:27;94527.56;;;7.89;100.00
21011;BME280;10663;42.714;23.274;2024-03-07T01:48:58;94529.44;;;7.94;100.00
21011;BME280;10663;42.714;23.274;2024-03-07T01:50:29;94532.84;;;7.94;100.00
21011;BME280;10663;42.714;23.274;2024-03-07T01:52:00;94529.16;;;7.90;100.00
21011;BME280;10663;42.714;23.274;2024-03-07T01:53:32;94529.31;;;7.78;100.00
21011;BME280;10663;42.714;23.274;2024-03-07T01:55:04;94538.75;;;7.74;100.00
21011;BME280;10663;42.714;23.274;2024-03-07T01:56:35;94533.25;;;7.76;100.00
21011;BME280;10663;42.714;23.274;2024-03-07T01:58:08;94542.19;;;7.75;100.00
21011;BME280;10663;42.714;23.274;2024-03-07T01:59:41;94535.13;;;7.80;100.00
21011;BME280;10663;42.714;23.274;2024-03-07T02:01:12;94538.72;;;7.69;100.00
21011;BME280;10663;42.714;23.274;2024-03-07T02:02:45;94530.59;;;7.76;100.00
21011;BME280;10663;42.714;23.274;2024-03-07T02:04:17;94533.22;;;7.71;100.00
21011;BME280;10663;42.714;23.274;2024-03-07T02:05:47;94533.53;;;7.79;100.00
21011;BME280;10663;42.714;23.274;2024-03-07T02:07:18;94530.41;;;7.82;100.00
21011;BME280;10663;42.714;23.274;2024-03-07T02:08:49;94526.53;;;7.90;100.00
21011;BME280;10663;42.714;23.274;2024-03-07T02:10:20;94525.50;;;7.96;100.00
21011;BME280;10663;42.714;23.274;2024-03-07T02:11:50;94521.03;;;7.97;100.00
21011;BME280;10663;42.714;23.274;2024-03-07T02:13:21;94512.53;;;7.89;100.00
21011;BME280;10663;42.714;23.274;2024-03-07T02:14:52;94512.00;;;7.87;100.00
21011;BME280;10663;42.714;23.274;2024-03-07T02:16:22;94515.19;;;7.89;100.00
21011;BME280;10663;42.714;23.274;2024-03-07T02:17:53;94509.09;;;7.89;100.00
21011;BME280;10663;42.714;23.274;2024-03-07T02:19:24;94506.97;;;7.86;100.00
21011;BME280;10663;42.714;23.274;2024-03-07T02:20:55;94506.69;;;7.82;100.00
21011;BME280;10663;42.714;23.274;2024-03-07T02:22:26;94501.16;;;7.84;100.00
21011;BME280;10663;42.714;23.274;2024-03-07T02:23:56;94503.28;;;7.87;100.00
21011;BME280;10663;42.714;23.274;2024-03-07T02:25:28;94499.84;;;7.86;100.00
21011;BME280;10663;42.714;23.274;2024-03-07T02:26:58;94504.31;;;7.81;100.00
21011;BME280;10663;42.714;23.274;2024-03-07T02:28:30;94511.16;;;7.82;100.00
21011;BME280;10663;42.714;23.274;2024-03-07T02:30:00;94512.69;;;7.73;100.00
21011;BME280;10663;42.714;23.274;2024-03-07T02:31:36;94514.75;;;7.71;100.00
21011;BME280;10663;42.714;23.274;2024-03-07T02:33:07;94520.28;;;7.69;100.00
21011;BME280;10663;42.714;23.274;2024-03-07T02:34:38;94520.53;;;7.68;100.00
21011;BME280;10663;42.714;23.274;2024-03-07T02:36:08;94512.13;;;7.71;100.00
21011;BME280;10663;42.714;23.274;2024-03-07T02:37:39;94524.88;;;7.52;100.00
21011;BME280;10663;42.714;23.274;2024-03-07T02:39:11;94532.06;;;7.62;100.00
21011;BME280;10663;42.714;23.274;2024-03-07T02:40:42;94530.78;;;7.64;100.00
21011;BME280;10663;42.714;23.274;2024-03-07T02:42:13;94529.44;;;7.62;100.00
21011;BME280;10663;42.714;23.274;2024-03-07T02:43:43;94530.00;;;7.64;100.00
21011;BME280;10663;42.714;23.274;2024-03-07T02:45:14;94532.66;;;7.69;100.00
21011;BME280;10663;42.714;23.274;2024-03-07T02:46:45;94521.22;;;7.58;100.00
21011;BME280;10663;42.714;23.274;2024-03-07T02:48:17;94533.59;;;7.58;100.00
21011;BME280;10663;42.714;23.274;2024-03-07T02:49:48;94532.78;;;7.52;100.00
21011;BME280;10663;42.714;23.274;2024-03-07T02:51:20;94531.66;;;7.48;100.00
21011;BME280;10663;42.714;23.274;2024-03-07T02:52:51;94538.78;;;7.47;100.00
21011;BME280;10663;42.714;23.274;2024-03-07T02:54:22;94538.59;;;7.27;100.00
21011;BME280;10663;42.714;23.274;2024-03-07T02:55:53;94536.66;;;7.18;100.00
21011;BME280;10663;42.714;23.274;2024-03-07T02:57:24;94542.81;;;7.28;100.00
21011;BME280;10663;42.714;23.274;2024-03-07T02:58:55;94534.16;;;7.33;100.00
21011;BME280;10663;42.714;23.274;2024-03-07T03:00:26;94532.09;;;7.35;100.00
21011;BME280;10663;42.714;23.274;2024-03-07T03:02:00;94537.09;;;7.36;100.00
21011;BME280;10663;42.714;23.274;2024-03-07T03:03:30;94540.25;;;7.38;100.00
21011;BME280;10663;42.714;23.274;2024-03-07T03:05:04;94531.31;;;7.39;100.00
21011;BME280;10663;42.714;23.274;2024-03-07T03:06:38;94536.34;;;7.41;100.00
21011;BME280;10663;42.714;23.274;2024-03-07T03:08:08;94537.28;;;7.30;100.00
21011;BME280;10663;42.714;23.274;2024-03-07T03:09:40;94533.78;;;7.19;100.00
21011;BME280;10663;42.714;23.274;2024-03-07T03:11:13;94542.19;;;7.21;100.00
21011;BME280;10663;42.714;23.274;2024-03-07T03:12:44;94540.13;;;7.23;100.00
21011;BME280;10663;42.714;23.274;2024-03-07T03:14:15;94534.81;;;7.18;100.00
21011;BME280;10663;42.714;23.274;2024-03-07T03:15:45;94534.00;;;6.96;100.00
21011;BME280;10663;42.714;23.274;2024-03-07T03:17:16;94541.00;;;7.07;100.00
21011;BME280;10663;42.714;23.274;2024-03-07T03:18:46;94535.25;;;6.88;100.00
21011;BME280;10663;42.714;23.274;2024-03-07T03:20:19;94547.97;;;6.74;100.00
21011;BME280;10663;42.714;23.274;2024-03-07T03:21:55;94544.63;;;6.79;100.00
21011;BME280;10663;42.714;23.274;2024-03-07T03:23:26;94532.50;;;6.78;100.00
21011;BME280;10663;42.714;23.274;2024-03-07T03:24:56;94544.47;;;6.69;100.00
21011;BME280;10663;42.714;23.274;2024-03-07T03:26:30;94540.03;;;6.69;100.00
21011;BME280;10663;42.714;23.274;2024-03-07T03:28:05;94543.06;;;6.83;100.00
21011;BME280;10663;42.714;23.274;2024-03-07T03:29:36;94542.34;;;6.88;100.00
21011;BME280;10663;42.714;23.274;2024-03-07T03:31:07;94545.81;;;6.93;100.00
21011;BME280;10663;42.714;23.274;2024-03-07T03:32:40;94546.88;;;6.92;100.00
21011;BME280;10663;42.714;23.274;2024-03-07T03:34:11;94552.28;;;6.81;100.00
21011;BME280;10663;42.714;23.274;2024-03-07T03:35:42;94562.47;;;6.77;100.00
21011;BME280;10663;42.714;23.274;2024-03-07T03:37:13;94557.59;;;6.86;100.00
21011;BME280;10663;42.714;23.274;2024-03-07T03:38:44;94536.59;;;6.91;100.00
21011;BME280;10663;42.714;23.274;2024-03-07T03:40:15;94533.22;;;6.95;100.00
21011;BME280;10663;42.714;23.274;2024-03-07T03:41:46;94531.38;;;6.96;100.00
21011;BME280;10663;42.714;23.274;2024-03-07T03:43:16;94525.81;;;6.92;100.00
21011;BME280;10663;42.714;23.274;2024-03-07T03:44:49;94528.41;;;6.87;100.00
21011;BME280;10663;42.714;23.274;2024-03-07T03:46:20;94530.22;;;6.87;100.00
21011;BME280;10663;42.714;23.274;2024-03-07T03:47:51;94527.53;;;6.82;100.00
21011;BME280;10663;42.714;23.274;2024-03-07T03:49:21;94521.38;;;6.71;100.00
21011;BME280;10663;42.714;23.274;2024-03-07T03:50:52;94527.72;;;6.75;100.00
21011;BME280;10663;42.714;23.274;2024-03-07T03:52:24;94527.19;;;6.73;100.00
21011;BME280;10663;42.714;23.274;2024-03-07T03:53:56;94522.63;;;6.68;100.00
21011;BME280;10663;42.714;23.274;2024-03-07T03:55:27;94523.13;;;6.65;100.00
21011;BME280;10663;42.714;23.274;2024-03-07T03:56:58;94522.59;;;6.63;100.00
21011;BME280;10663;42.714;23.274;2024-03-07T03:58:29;94518.66;;;6.66;100.00
21011;BME280;10663;42.714;23.274;2024-03-07T04:00:00;94512.31;;;6.62;100.00
21011;BME280;10663;42.714;23.274;2024-03-07T04:01:31;94516.22;;;6.59;100.00
21011;BME280;10663;42.714;23.274;2024-03-07T04:03:01;94521.94;;;6.56;100.00
21011;BME280;10663;42.714;23.274;2024-03-07T04:04:32;94521.72;;;6.58;100.00
21011;BME280;10663;42.714;23.274;2024-03-07T04:06:03;94524.06;;;6.54;100.00
21011;BME280;10663;42.714;23.274;2024-03-07T04:07:40;94523.00;;;6.55;100.00
21011;BME280;10663;42.714;23.274;2024-03-07T04:09:13;94532.78;;;6.60;100.00
21011;BME280;10663;42.714;23.274;2024-03-07T04:10:46;94529.84;;;6.56;100.00
21011;BME280;10663;42.714;23.274;2024-03-07T04:12:16;94528.44;;;6.49;100.00
21011;BME280;10663;42.714;23.274;2024-03-07T04:13:47;94536.16;;;6.55;100.00
21011;BME280;10663;42.714;23.274;2024-03-07T04:15:18;94534.31;;;6.56;100.00
21011;BME280;10663;42.714;23.274;2024-03-07T04:16:49;94535.03;;;6.51;100.00
21011;BME280;10663;42.714;23.274;2024-03-07T04:18:23;94530.91;;;6.55;100.00
21011;BME280;10663;42.714;23.274;2024-03-07T04:19:53;94533.53;;;6.55;100.00
21011;BME280;10663;42.714;23.274;2024-03-07T04:21:24;94539.88;;;6.59;100.00
21011;BME280;10663;42.714;23.274;2024-03-07T04:22:56;94542.50;;;6.59;100.00
21011;BME280;10663;42.714;23.274;2024-03-07T04:24:26;94545.69;;;6.61;100.00
21011;BME280;10663;42.714;23.274;2024-03-07T04:25:58;94540.50;;;6.66;100.00
21011;BME280;10663;42.714;23.274;2024-03-07T04:27:30;94543.13;;;6.66;100.00
21011;BME280;10663;42.714;23.274;2024-03-07T04:29:01;94534.19;;;6.67;100.00
21011;BME280;10663;42.714;23.274;2024-03-07T04:30:31;94537.25;;;6.59;100.00
21011;BME280;10663;42.714;23.274;2024-03-07T04:32:03;94534.44;;;6.66;100.00
21011;BME280;10663;42.714;23.274;2024-03-07T04:33:35;94540.25;;;6.68;100.00
21011;BME280;10663;42.714;23.274;2024-03-07T04:35:06;94536.28;;;6.65;100.00
21011;BME280;10663;42.714;23.274;2024-03-07T04:36:37;94538.66;;;6.67;100.00
21011;BME280;10663;42.714;23.274;2024-03-07T04:38:08;94538.59;;;6.62;100.00
21011;BME280;10663;42.714;23.274;2024-03-07T04:39:41;94535.97;;;6.62;100.00
21011;BME280;10663;42.714;23.274;2024-03-07T04:41:12;94533.09;;;6.63;100.00
21011;BME280;10663;42.714;23.274;2024-03-07T04:42:46;94544.06;;;6.55;100.00
21011;BME280;10663;42.714;23.274;2024-03-07T04:44:17;94529.84;;;6.56;100.00
21011;BME280;10663;42.714;23.274;2024-03-07T04:45:48;94536.69;;;6.57;100.00
21011;BME280;10663;42.714;23.274;2024-03-07T04:47:18;94533.78;;;6.54;100.00
21011;BME280;10663;42.714;23.274;2024-03-07T04:48:49;94534.47;;;6.49;100.00
21011;BME280;10663;42.714;23.274;2024-03-07T04:50:20;94527.56;;;6.43;100.00
21011;BME280;10663;42.714;23.274;2024-03-07T04:51:55;94540.41;;;6.39;100.00
21011;BME280;10663;42.714;23.274;2024-03-07T04:53:26;94540.63;;;6.38;100.00
21011;BME280;10663;42.714;23.274;2024-03-07T04:54:56;94539.69;;;6.44;100.00
21011;BME280;10663;42.714;23.274;2024-03-07T04:56:27;94547.19;;;6.35;100.00
21011;BME280;10663;42.714;23.274;2024-03-07T04:57:58;94543.91;;;6.28;100.00
21011;BME280;10663;42.714;23.274;2024-03-07T04:59:28;94548.47;;;6.33;100.00
21011;BME280;10663;42.714;23.274;2024-03-07T05:00:59;94545.28;;;6.31;100.00
21011;BME280;10663;42.714;23.274;2024-03-07T05:02:30;94547.44;;;6.34;100.00
21011;BME280;10663;42.714;23.274;2024-03-07T05:04:01;94545.59;;;6.34;100.00
21011;BME280;10663;42.714;23.274;2024-03-07T05:05:33;94553.56;;;6.39;100.00
21011;BME280;10663;42.714;23.274;2024-03-07T05:07:04;94552.53;;;6.41;100.00
21011;BME280;10663;42.714;23.274;2024-03-07T05:08:34;94547.81;;;6.43;100.00
21011;BME280;10663;42.714;23.274;2024-03-07T05:10:07;94550.78;;;6.46;100.00
21011;BME280;10663;42.714;23.274;2024-03-07T05:11:37;94553.63;;;6.45;100.00
21011;BME280;10663;42.714;23.274;2024-03-07T05:13:08;94559.06;;;6.38;100.00
21011;BME280;10663;42.714;23.274;2024-03-07T05:14:39;94551.91;;;6.33;100.00
21011;BME280;10663;42.714;23.274;2024-03-07T05:16:09;94550.53;;;6.31;100.00
21011;BME280;10663;42.714;23.274;2024-03-07T05:17:40;94555.63;;;6.37;100.00
21011;BME280;10663;42.714;23.274;2024-03-07T05:19:13;94549.81;;;6.35;100.00
21011;BME280;10663;42.714;23.274;2024-03-07T05:20:44;94549.28;;;6.33;100.00
21011;BME280;10663;42.714;23.274;2024-03-07T05:22:15;94563.69;;;6.31;100.00
21011;BME280;10663;42.714;23.274;2024-03-07T05:23:46;94566.31;;;6.31;100.00
21011;BME280;10663;42.714;23.274;2024-03-07T05:25:17;94571.91;;;6.34;100.00
21011;BME280;10663;42.714;23.274;2024-03-07T05:26:49;94567.69;;;6.33;100.00
21011;BME280;10663;42.714;23.274;2024-03-07T05:28:19;94572.38;;;6.31;100.00
21011;BME280;10663;42.714;23.274;2024-03-07T05:29:50;94581.69;;;6.39;100.00
21011;BME280;10663;42.714;23.274;2024-03-07T05:31:21;94579.22;;;6.32;100.00
21011;BME280;10663;42.714;23.274;2024-03-07T05:32:52;94578.19;;;6.33;100.00
21011;BME280;10663;42.714;23.274;2024-03-07T05:34:23;94582.25;;;6.41;100.00
21011;BME280;10663;42.714;23.274;2024-03-07T05:35:57;94579.00;;;6.34;100.00
21011;BME280;10663;42.714;23.274;2024-03-07T05:37:47;94578.56;;;6.42;100.00
21011;BME280;10663;42.714;23.274;2024-03-07T05:39:20;94583.50;;;6.38;100.00
21011;BME280;10663;42.714;23.274;2024-03-07T05:40:51;94581.78;;;6.44;100.00
21011;BME280;10663;42.714;23.274;2024-03-07T05:42:22;94577.78;;;6.42;100.00
21011;BME280;10663;42.714;23.274;2024-03-07T05:43:59;94573.69;;;6.51;100.00
21011;BME280;10663;42.714;23.274;2024-03-07T05:45:33;94588.28;;;6.58;100.00
21011;BME280;10663;42.714;23.274;2024-03-07T05:47:05;94578.53;;;6.59;100.00
21011;BME280;10663;42.714;23.274;2024-03-07T05:48:37;94576.94;;;6.58;100.00
21011;BME280;10663;42.714;23.274;2024-03-07T05:50:08;94581.91;;;6.54;100.00
21011;BME280;10663;42.714;23.274;2024-03-07T05:51:39;94580.63;;;6.57;100.00
21011;BME280;10663;42.714;23.274;2024-03-07T05:53:12;94591.13;;;6.57;100.00
21011;BME280;10663;42.714;23.274;2024-03-07T05:54:43;94590.34;;;6.56;100.00
21011;BME280;10663;42.714;23.274;2024-03-07T05:56:14;94584.78;;;6.53;100.00
21011;BME280;10663;42.714;23.274;2024-03-07T05:57:44;94582.38;;;6.51;100.00
21011;BME280;10663;42.714;23.274;2024-03-07T05:59:15;94582.94;;;6.53;100.00
21011;BME280;10663;42.714;23.274;2024-03-07T06:00:50;94587.97;;;6.55;100.00
21011;BME280;10663;42.714;23.274;2024-03-07T06:02:21;94588.63;;;6.45;100.00
21011;BME280;10663;42.714;23.274;2024-03-07T06:03:53;94591.78;;;6.47;100.00
21011;BME280;10663;42.714;23.274;2024-03-07T06:05:27;94595.22;;;6.48;100.00
21011;BME280;10663;42.714;23.274;2024-03-07T06:06:58;94598.16;;;6.51;100.00
21011;BME280;10663;42.714;23.274;2024-03-07T06:08:29;94591.31;;;6.50;100.00
21011;BME280;10663;42.714;23.274;2024-03-07T06:10:00;94594.91;;;6.44;100.00
21011;BME280;10663;42.714;23.274;2024-03-07T06:11:30;94596.53;;;6.45;100.00
21011;BME280;10663;42.714;23.274;2024-03-07T06:13:01;94606.16;;;6.39;100.00
21011;BME280;10663;42.714;23.274;2024-03-07T06:14:32;94612.84;;;6.30;100.00
21011;BME280;10663;42.714;23.274;2024-03-07T06:16:02;94612.44;;;6.38;100.00
21011;BME280;10663;42.714;23.274;2024-03-07T06:17:38;94615.34;;;6.37;100.00
21011;BME280;10663;42.714;23.274;2024-03-07T06:19:09;94618.66;;;6.32;100.00
21011;BME280;10663;42.714;23.274;2024-03-07T06:20:41;94621.28;;;6.32;100.00
21011;BME280;10663;42.714;23.274;2024-03-07T06:22:12;94624.56;;;6.39;100.00
21011;BME280;10663;42.714;23.274;2024-03-07T06:23:42;94617.88;;;6.32;100.00
21011;BME280;10663;42.714;23.274;2024-03-07T06:25:13;94616.09;;;6.37;100.00
21011;BME280;10663;42.714;23.274;2024-03-07T06:26:55;94628.88;;;6.46;100.00
21011;BME280;10663;42.714;23.274;2024-03-07T06:28:34;94614.09;;;6.61;100.00
21011;BME280;10663;42.714;23.274;2024-03-07T06:30:38;94600.53;;;6.69;100.00
21011;BME280;10663;42.714;23.274;2024-03-07T06:32:32;94604.94;;;6.86;100.00
21011;BME280;10663;42.714;23.274;2024-03-07T06:34:03;94607.25;;;6.99;100.00
21011;BME280;10663;42.714;23.274;2024-03-07T06:35:34;94609.69;;;7.05;100.00
21011;BME280;10663;42.714;23.274;2024-03-07T06:37:07;94606.94;;;7.17;100.00
21011;BME280;10663;42.714;23.274;2024-03-07T06:38:39;94617.03;;;7.25;100.00
21011;BME280;10663;42.714;23.274;2024-03-07T06:40:10;94613.25;;;7.16;100.00
21011;BME280;10663;42.714;23.274;2024-03-07T06:41:41;94606.44;;;7.42;100.00
21011;BME280;10663;42.714;23.274;2024-03-07T06:43:12;94606.22;;;7.48;100.00
21011;BME280;10663;42.714;23.274;2024-03-07T06:44:44;94606.09;;;7.60;100.00
21011;BME280;10663;42.714;23.274;2024-03-07T06:46:15;94606.09;;;7.60;100.00
21011;BME280;10663;42.714;23.274;2024-03-07T06:47:48;94607.59;;;7.51;100.00
21011;BME280;10663;42.714;23.274;2024-03-07T06:49:18;94611.22;;;7.45;100.00
21011;BME280;10663;42.714;23.274;2024-03-07T06:50:51;94607.34;;;7.53;100.00
21011;BME280;10663;42.714;23.274;2024-03-07T06:52:23;94608.47;;;7.35;100.00
21011;BME280;10663;42.714;23.274;2024-03-07T06:53:53;94612.38;;;7.32;100.00
21011;BME280;10663;42.714;23.274;2024-03-07T06:55:24;94624.38;;;7.23;100.00
21011;BME280;10663;42.714;23.274;2024-03-07T06:56:55;94618.81;;;7.41;100.00
21011;BME280;10663;42.714;23.274;2024-03-07T06:58:25;94620.84;;;7.34;100.00
21011;BME280;10663;42.714;23.274;2024-03-07T06:59:56;94622.72;;;7.39;100.00
21011;BME280;10663;42.714;23.274;2024-03-07T07:01:27;94617.97;;;7.36;100.00
21011;BME280;10663;42.714;23.274;2024-03-07T07:02:59;94618.19;;;7.34;100.00
21011;BME280;10663;42.714;23.274;2024-03-07T07:04:31;94612.94;;;7.34;100.00
21011;BME280;10663;42.714;23.274;2024-03-07T07:06:12;94620.94;;;7.23;100.00
21011;BME280;10663;42.714;23.274;2024-03-07T07:07:42;94609.25;;;7.35;100.00
21011;BME280;10663;42.714;23.274;2024-03-07T07:09:13;94596.72;;;7.47;100.00
21011;BME280;10663;42.714;23.274;2024-03-07T07:10:49;94597.34;;;7.55;100.00
21011;BME280;10663;42.714;23.274;2024-03-07T07:12:20;94601.50;;;7.50;100.00
21011;BME280;10663;42.714;23.274;2024-03-07T07:13:51;94595.25;;;7.57;100.00
21011;BME280;10663;42.714;23.274;2024-03-07T07:15:22;94596.94;;;7.68;100.00
21011;BME280;10663;42.714;23.274;2024-03-07T07:16:52;94594.44;;;7.83;99.39
21011;BME280;10663;42.714;23.274;2024-03-07T07:18:23;94596.31;;;7.82;98.98
21011;BME280;10663;42.714;23.274;2024-03-07T07:19:54;94600.84;;;7.92;98.21
21011;BME280;10663;42.714;23.274;2024-03-07T07:21:26;94605.94;;;7.99;97.38
21011;BME280;10663;42.714;23.274;2024-03-07T07:22:56;94609.84;;;7.91;96.56
21011;BME280;10663;42.714;23.274;2024-03-07T07:24:29;94607.53;;;8.00;97.35
21011;BME280;10663;42.714;23.274;2024-03-07T07:26:04;94606.56;;;8.11;97.45
21011;BME280;10663;42.714;23.274;2024-03-07T07:27:36;94605.31;;;8.18;96.93
21011;BME280;10663;42.714;23.274;2024-03-07T07:29:07;94607.78;;;8.30;97.15
21011;BME280;10663;42.714;23.274;2024-03-07T07:30:38;94606.13;;;8.19;95.98
21011;BME280;10663;42.714;23.274;2024-03-07T07:32:09;94607.84;;;8.35;95.32
21011;BME280;10663;42.714;23.274;2024-03-07T07:33:42;94606.53;;;8.38;95.03
21011;BME280;10663;42.714;23.274;2024-03-07T07:35:13;94605.69;;;8.64;93.68
21011;BME280;10663;42.714;23.274;2024-03-07T07:36:45;94602.91;;;8.86;94.70
21011;BME280;10663;42.714;23.274;2024-03-07T07:38:16;94604.66;;;8.70;91.89
21011;BME280;10663;42.714;23.274;2024-03-07T07:39:46;94594.66;;;8.72;92.69
21011;BME280;10663;42.714;23.274;2024-03-07T07:41:17;94602.88;;;8.81;92.11
21011;BME280;10663;42.714;23.274;2024-03-07T07:42:52;94599.38;;;8.70;92.21
21011;BME280;10663;42.714;23.274;2024-03-07T07:44:23;94596.25;;;8.73;92.83
21011;BME280;10663;42.714;23.274;2024-03-07T07:45:54;94589.44;;;8.87;92.16
21011;BME280;10663;42.714;23.274;2024-03-07T07:47:24;94597.63;;;8.86;93.13
21011;BME280;10663;42.714;23.274;2024-03-07T07:48:55;94596.50;;;8.72;91.50
21011;BME280;10663;42.714;23.274;2024-03-07T07:50:26;94600.00;;;8.82;92.00
21011;BME280;10663;42.714;23.274;2024-03-07T07:51:57;94597.31;;;8.77;91.77
21011;BME280;10663;42.714;23.274;2024-03-07T07:53:27;94599.22;;;8.87;92.32
21011;BME280;10663;42.714;23.274;2024-03-07T07:54:58;94599.44;;;8.80;92.69
21011;BME280;10663;42.714;23.274;2024-03-07T07:56:28;94590.91;;;8.68;92.00
21011;BME280;10663;42.714;23.274;2024-03-07T07:58:00;94600.19;;;8.76;91.59
21011;BME280;10663;42.714;23.274;2024-03-07T07:59:30;94604.34;;;8.61;91.99